If you wish to contribute or participate in the discussions about articles you are invited to join SKYbrary as a registered user

 Actions

Andahuaylas Airport

From SKYbrary Wiki

SPHY
Airport
ICAO: SPHY – IATA: ANS
Summary
Name Andahuaylas Airport
Region South America and Caribbean
Territory Peru PE.gif
Location Huinchos, Apurimac
Serving Andahuaylas
Elevation 3,444.24 m <br />11,300 ft <br />11,300 ft3,444.24 m <br />
Type small airport
Coordinates 13° 42' 23.07" S, 73° 21' 1.36" W
Runways
Designator Length Width Surface ROPS
3/21 2500 m8,202.1 ft <br /> 30 m98.425 ft <br /> ASP /


METAR
Observation SPHY 141800Z 04004KT 9999 VCSH SCT012 BKN070 18/07 Q1031 RMK BIRD HAZARD RWY03/21 PP000
Station Andahuayla
Date/Time 14 October 2021 18:00:00
Wind direction 40°
Wind speed 04 kts
Lowest cloud amount scattered clouds
Temperature 18°C
Dew point 7°C
Humidity 48%
QNH 1031 hPa
Weather condition in vicinity: showers

A high-elevation airport serving Andahuaylas, Peru.

Climatology

Cold Semi-arid climate (Köppen climate classification BSk).

Maps

Terrain

Loading map...

Airport Layout

Loading map...


Accidents & Serious Incidents at or in vicinity of SPHY

None on SKYbrary